Mountain City, Nevada
Current Conditions -  °F | °C
As of 7:56 AM on Monday 26 Jan 2015 (Local Time) from KEKO Reporting Station
Clear Clear  
Wind Chill: 22°   Ceiling: Unl
Heat Index: 27°   Visibility: 10mi
Dew Point: 24°   Wind: 5mph
Humidity: 89%   Direction: 100°E
Pressure: 30.32"   Gusts: NA
Location:  41.84°N, 115.97°W
Report Text: KEKO 261556Z AUTO 10004KT 10SM CLR M03/M04 A3032 RMK AO2 SLP290 T10281044
Loading
Personal Weather Stations






























Interactive Weather Map New forecast layout! Learn more

10-Day Weather Forecast

Advertisements
Track Severe Weather on mobile